Terminal Aerodrome Forecast
Issued by NWS

Home | Current Version | Previous Version | Graphics & Text | Print | Product List | Glossary On
Versions: 1 2 3 4 5 6 7 8 9 10 11 12 13 14 15 16 17 18 19
000
FTUS42 KMHX 191400 AAB
TAFPGV
TAF AMD
KPGV 191411Z 1914/2012 31005KT P6SM BKN015
     FM191600 31007KT P6SM SCT020
     FM191900 30008KT P6SM VCTS BKN040CB
     FM200100 36004KT P6SM SCT040 BKN100
     FM200800 01003KT 4SM BR SCT007 BKN100
      AMD LTD TO CLD VIS AND WIND=

USA.gov is the U.S. government's official web portal to all federal, state and local government web resources and services.